createdAt,value
2023-12-20T00:00:17.302Z,98015.06
2023-12-20T00:03:20.746Z,98015.28
2023-12-20T00:06:25.623Z,98014.25
2023-12-20T00:09:29.312Z,98015.16
2023-12-20T00:12:33.271Z,98006.50
2023-12-20T00:15:36.819Z,98011.53
2023-12-20T00:18:40.341Z,98002.16
2023-12-20T00:21:45.173Z,98008.91
2023-12-20T00:24:48.706Z,97992.47
2023-12-20T00:27:52.252Z,97997.69
2023-12-20T00:30:55.843Z,97994.19
2023-12-20T00:33:59.492Z,97967.13
2023-12-20T00:37:04.962Z,97973.75
2023-12-20T00:40:09.441Z,97979.88
2023-12-20T00:43:13.217Z,97973.91
2023-12-20T00:46:16.821Z,97971.16
2023-12-20T00:49:20.491Z,97965.13
2023-12-20T00:52:25.379Z,97967.69
2023-12-20T00:55:28.858Z,97970.09
2023-12-20T00:58:32.680Z,97973.56
2023-12-20T01:01:36.210Z,97966.75
2023-12-20T01:04:39.999Z,97968.53
2023-12-20T01:07:45.255Z,97965.97
2023-12-20T01:10:48.927Z,97964.22
2023-12-20T01:13:52.561Z,97962.53
2023-12-20T01:16:56.281Z,97964.97
2023-12-20T01:20:00.315Z,97959.09
2023-12-20T01:23:05.702Z,97959.97
2023-12-20T01:26:09.237Z,97954.09
2023-12-20T01:29:13.320Z,97949.69
2023-12-20T01:32:17.093Z,97942.88
2023-12-20T01:35:20.652Z,97948.13
2023-12-20T01:38:25.581Z,97949.97
2023-12-20T01:41:29.238Z,97946.53
2023-12-20T01:44:33.558Z,97942.31
2023-12-20T01:47:37.977Z,97932.13
2023-12-20T01:50:42.180Z,97932.84
2023-12-20T01:53:47.295Z,97932.06
2023-12-20T01:56:52.040Z,97934.53
2023-12-20T01:59:55.771Z,97926.03
2023-12-20T02:03:03.535Z,97930.28
2023-12-20T02:06:07.573Z,97938.06
2023-12-20T02:09:12.490Z,97927.88
2023-12-20T02:12:16.012Z,97935.81
2023-12-20T02:15:19.854Z,97926.41
2023-12-20T02:18:23.796Z,97921.44
2023-12-20T02:21:35.422Z,97918.19
2023-12-20T02:24:39.285Z,97916.69
2023-12-20T02:27:43.402Z,97913.25
2023-12-20T02:30:47.268Z,97921.03
2023-12-20T02:33:51.001Z,97920.13
2023-12-20T02:36:56.376Z,97918.72
2023-12-20T02:39:59.964Z,97917.25
2023-12-20T02:43:04.221Z,97922.56
2023-12-20T02:46:07.830Z,97918.41
2023-12-20T02:49:11.437Z,97932.88
2023-12-20T02:52:16.470Z,97927.06
2023-12-20T02:55:20.230Z,97930.53
2023-12-20T02:58:24.053Z,97922.94
2023-12-20T03:01:29.277Z,97931.75
2023-12-20T03:04:33.860Z,97924.25
2023-12-20T03:07:40.132Z,97925.25
2023-12-20T03:10:43.867Z,97924.41
2023-12-20T03:13:47.460Z,97916.84
2023-12-20T03:16:52.071Z,97918.53
2023-12-20T03:19:55.613Z,97914.38
2023-12-20T03:23:00.517Z,97922.06
2023-12-20T03:26:04.914Z,97859.00
2023-12-20T03:29:08.424Z,97926.53
2023-12-20T03:32:12.054Z,97918.03
2023-12-20T03:35:15.682Z,97920.69
2023-12-20T03:38:20.893Z,97924.16
2023-12-20T03:41:24.507Z,97920.88
2023-12-20T03:44:30.106Z,97927.00
2023-12-20T03:47:34.021Z,97935.72
2023-12-20T03:50:38.020Z,97930.59
2023-12-20T03:53:43.162Z,97939.22
2023-12-20T03:56:50.677Z,97933.22
2023-12-20T03:59:54.356Z,97936.59
2023-12-20T04:02:57.917Z,97935.03
2023-12-20T04:06:01.836Z,97927.31
2023-12-20T04:09:06.826Z,97929.81
2023-12-20T04:12:10.480Z,97939.41
2023-12-20T04:15:14.620Z,97940.09
2023-12-20T04:18:18.222Z,97935.03
2023-12-20T04:21:21.782Z,97936.75
2023-12-20T04:24:26.736Z,97935.06
2023-12-20T04:27:30.345Z,97935.06
2023-12-20T04:34:31.560Z,97930.19
2023-12-20T04:37:35.182Z,97935.34
2023-12-20T04:40:38.876Z,97930.03
2023-12-20T04:43:42.451Z,97940.28
2023-12-20T04:46:46.193Z,97948.84
2023-12-20T04:49:51.352Z,97938.75
2023-12-20T04:52:54.971Z,97937.72
2023-12-20T04:55:58.466Z,97941.88
2023-12-20T04:59:01.958Z,97947.09
2023-12-20T05:02:05.832Z,97952.28
2023-12-20T05:05:12.722Z,97945.47
2023-12-20T05:08:16.645Z,97954.94
2023-12-20T05:11:21.526Z,97952.38
2023-12-20T05:14:25.854Z,97955.03
2023-12-20T05:17:29.446Z,97958.44
2023-12-20T05:20:34.795Z,97974.66
2023-12-20T05:23:38.573Z,97976.44
2023-12-20T05:26:42.094Z,97978.16
2023-12-20T05:29:45.740Z,97973.88
2023-12-20T05:32:49.698Z,97980.66
2023-12-20T05:35:54.644Z,97986.69
2023-12-20T05:38:58.635Z,97987.69
2023-12-20T05:42:02.289Z,97991.84
2023-12-20T05:45:07.191Z,97987.81
2023-12-20T05:48:10.875Z,97993.56
2023-12-20T05:51:16.021Z,97998.69
2023-12-20T05:54:19.623Z,98004.75
2023-12-20T05:57:24.405Z,98002.09
2023-12-20T06:00:27.957Z,98006.41
2023-12-20T06:03:31.628Z,98008.13
2023-12-20T06:06:36.801Z,98014.09
2023-12-20T06:09:40.810Z,98009.09
2023-12-20T06:12:44.332Z,98016.69
2023-12-20T06:15:48.304Z,98016.69
2023-12-20T06:18:52.359Z,98015.06
2023-12-20T06:21:57.492Z,98023.59
2023-12-20T06:25:01.150Z,98039.84
2023-12-20T06:28:05.092Z,98039.75
2023-12-20T06:31:08.783Z,98049.19
2023-12-20T06:34:12.548Z,98048.34
2023-12-20T06:37:17.845Z,98047.44
2023-12-20T06:40:26.008Z,98039.78
2023-12-20T06:43:46.395Z,98050.78
2023-12-20T06:46:53.426Z,98056.88
2023-12-20T06:49:57.264Z,98056.00
2023-12-20T06:53:07.972Z,98055.97
2023-12-20T06:56:14.582Z,98035.75
2023-12-20T06:59:19.729Z,98054.31
2023-12-20T07:02:23.625Z,98064.53
2023-12-20T07:05:27.810Z,98078.88
2023-12-20T07:08:32.801Z,98090.66
2023-12-20T07:11:36.479Z,98096.59
2023-12-20T07:14:40.097Z,98096.69
2023-12-20T07:17:45.051Z,98101.94
2023-12-20T07:20:49.097Z,98109.69
2023-12-20T07:23:54.181Z,98117.38
2023-12-20T07:26:58.150Z,98116.34
2023-12-20T07:30:01.841Z,98124.19
2023-12-20T07:33:10.386Z,98128.44
2023-12-20T07:36:15.289Z,98127.41
2023-12-20T07:39:20.750Z,98125.69
2023-12-20T07:42:24.341Z,98127.34
2023-12-20T07:45:27.954Z,98119.72
2023-12-20T07:48:31.502Z,98132.28
2023-12-20T07:51:35.102Z,98127.97
2023-12-20T07:54:40.483Z,98114.09
2023-12-20T07:57:44.291Z,98115.19
2023-12-20T08:00:48.133Z,98137.94
2023-12-20T08:03:53.072Z,98144.69
2023-12-20T08:06:58.016Z,98144.63
2023-12-20T08:10:04.225Z,98146.31
2023-12-20T08:13:10.420Z,98136.97
2023-12-20T08:16:17.065Z,98137.59
2023-12-20T08:19:22.585Z,98144.34
2023-12-20T08:22:30.699Z,98146.00
2023-12-20T08:25:42.260Z,98140.97
2023-12-20T08:28:59.943Z,98142.44
2023-12-20T08:32:09.445Z,98138.81
2023-12-20T08:35:14.165Z,98155.69
2023-12-20T08:38:21.548Z,98154.75
2023-12-20T08:41:28.253Z,98149.59
2023-12-20T08:44:54.409Z,98130.69
2023-12-20T08:48:34.149Z,98170.97
2023-12-20T08:51:54.855Z,98140.13
2023-12-20T08:54:59.934Z,98128.94
2023-12-20T08:58:09.508Z,98139.09
2023-12-20T09:01:14.356Z,98131.28
2023-12-20T09:04:19.491Z,98128.81
2023-12-20T09:07:42.540Z,98134.84
2023-12-20T09:10:56.330Z,98122.09
2023-12-20T09:14:14.631Z,98118.63
2023-12-20T09:17:53.178Z,98125.59
2023-12-20T09:21:01.481Z,98135.44
2023-12-20T09:24:23.055Z,98136.09
2023-12-20T09:31:22.284Z,98135.81
2023-12-20T09:34:26.956Z,98131.41
2023-12-20T09:37:30.932Z,98135.78
2023-12-20T09:40:35.582Z,98137.28
2023-12-20T09:43:39.960Z,98134.69
2023-12-20T09:46:47.257Z,98144.88
2023-12-20T09:49:52.990Z,98149.00
2023-12-20T09:53:00.760Z,98142.94
2023-12-20T09:56:06.088Z,98148.81
2023-12-20T09:59:11.215Z,98132.31
2023-12-20T10:02:17.864Z,98141.00
2023-12-20T10:05:29.057Z,98140.06
2023-12-20T10:08:33.433Z,98128.91
2023-12-20T10:11:38.351Z,98119.09
2023-12-20T10:14:42.211Z,98135.06
2023-12-20T10:17:51.512Z,98130.47
2023-12-20T10:20:55.549Z,98126.03
2023-12-20T10:24:00.174Z,98125.94
2023-12-20T10:27:06.213Z,98119.75
2023-12-20T10:34:19.935Z,98110.59
2023-12-20T10:37:24.207Z,98117.38
2023-12-20T10:40:31.657Z,98111.34
2023-12-20T10:43:36.193Z,98109.41
2023-12-20T10:46:42.121Z,98106.31
2023-12-20T10:49:48.151Z,98089.25
2023-12-20T10:52:56.500Z,98098.97
2023-12-20T10:56:04.949Z,98089.88
2023-12-20T10:59:12.882Z,98095.16
2023-12-20T11:02:16.532Z,98093.75
2023-12-20T11:05:38.158Z,98080.94
2023-12-20T11:08:50.026Z,98087.13
2023-12-20T11:12:03.892Z,98083.47
2023-12-20T11:15:09.665Z,98083.69
2023-12-20T11:18:13.389Z,98081.16
2023-12-20T11:21:18.431Z,98077.00
2023-12-20T11:24:24.041Z,98084.78
2023-12-20T11:27:27.668Z,98091.84
2023-12-20T11:30:43.431Z,98081.72
2023-12-20T11:33:49.598Z,98081.66
2023-12-20T11:36:59.546Z,98070.59
2023-12-20T11:40:05.084Z,98066.44
2023-12-20T11:43:08.794Z,98065.63
2023-12-20T11:46:13.151Z,98055.25
2023-12-20T11:49:17.033Z,98068.00
2023-12-20T11:52:23.935Z,98060.09
2023-12-20T11:55:27.648Z,98050.69
2023-12-20T11:58:32.282Z,98054.31
2023-12-20T12:01:37.679Z,98056.69
2023-12-20T12:04:43.601Z,98059.06
2023-12-20T12:07:49.138Z,98058.31
2023-12-20T12:10:53.330Z,98064.09
2023-12-20T12:13:57.081Z,98058.75
2023-12-20T12:17:00.729Z,98049.50
2023-12-20T12:20:06.532Z,98042.50
2023-12-20T12:23:11.642Z,98056.16
2023-12-20T12:26:15.372Z,98050.03
2023-12-20T12:29:19.216Z,98052.59
2023-12-20T12:32:22.755Z,98048.50
2023-12-20T12:35:26.533Z,98053.81
2023-12-20T12:38:32.370Z,98043.63
2023-12-20T12:41:36.022Z,98043.63
2023-12-20T12:44:39.666Z,98042.50
2023-12-20T12:47:43.683Z,98042.50
2023-12-20T12:50:48.411Z,98050.19
2023-12-20T12:53:53.508Z,98051.13
2023-12-20T12:57:00.115Z,98046.81
2023-12-20T13:00:05.332Z,98049.06
2023-12-20T13:03:11.563Z,98049.25
2023-12-20T13:06:15.467Z,98054.34
2023-12-20T13:09:20.664Z,98043.16
2023-12-20T13:12:24.218Z,98040.47
2023-12-20T13:15:27.808Z,98044.88
2023-12-20T13:18:31.495Z,98033.00
2023-12-20T13:21:35.465Z,98039.25
2023-12-20T13:24:41.513Z,98040.91
2023-12-20T13:27:45.782Z,98048.75
2023-12-20T13:30:49.785Z,98037.72
2023-12-20T13:33:53.863Z,98048.88
2023-12-20T13:36:57.910Z,98042.03
2023-12-20T13:40:04.436Z,98041.22
2023-12-20T13:43:08.146Z,98044.75
2023-12-20T13:46:11.738Z,98038.88
2023-12-20T13:49:15.767Z,98037.25
2023-12-20T13:52:19.809Z,98045.88
2023-12-20T13:55:26.395Z,98049.41
2023-12-20T13:58:30.221Z,98041.50
2023-12-20T14:01:33.800Z,98039.94
2023-12-20T14:04:42.116Z,98033.00
2023-12-20T14:07:47.916Z,98030.53
2023-12-20T14:10:53.238Z,98036.31
2023-12-20T14:13:59.022Z,98026.09
2023-12-20T14:17:03.053Z,98041.75
2023-12-20T14:20:09.082Z,98049.56
2023-12-20T14:23:13.132Z,98038.59
2023-12-20T14:26:18.156Z,98032.72
2023-12-20T14:29:22.255Z,98033.75
2023-12-20T14:32:27.709Z,98028.38
2023-12-20T14:35:32.343Z,98012.16
2023-12-20T14:38:36.459Z,98015.78
2023-12-20T14:41:42.087Z,98010.69
2023-12-20T14:44:45.817Z,98003.94
2023-12-20T14:47:50.956Z,97999.16
2023-12-20T14:50:54.795Z,97990.38
2023-12-20T14:53:58.883Z,98007.56
2023-12-20T14:57:05.701Z,97999.75
2023-12-20T15:00:10.187Z,97995.66
2023-12-20T15:03:14.299Z,98003.25
2023-12-20T15:06:38.282Z,98007.66
2023-12-20T15:11:03.953Z,98012.34
2023-12-20T15:14:42.504Z,98024.25
2023-12-20T15:23:16.113Z,97862.31
2023-12-20T15:29:41.068Z,97984.47
2023-12-20T15:34:57.300Z,97985.31
2023-12-20T15:38:01.444Z,97985.16
2023-12-20T15:41:08.587Z,97996.28
2023-12-20T15:44:12.167Z,97999.44
2023-12-20T15:47:19.299Z,97994.06
2023-12-20T15:50:23.120Z,98002.06
2023-12-20T15:53:26.936Z,97992.53
2023-12-20T15:56:30.710Z,97998.63
2023-12-20T15:59:34.531Z,97999.50
2023-12-20T16:02:39.838Z,97998.69
2023-12-20T16:05:43.614Z,97993.41
2023-12-20T16:08:47.198Z,97990.75
2023-12-20T16:11:51.005Z,97982.25
2023-12-20T16:14:55.373Z,97986.38
2023-12-20T16:18:00.354Z,97983.97
2023-12-20T16:21:06.777Z,97988.28
2023-12-20T16:24:10.609Z,97972.78
2023-12-20T16:27:24.683Z,97976.13
2023-12-20T16:34:19.892Z,97986.91
2023-12-20T16:37:23.428Z,97987.72
2023-12-20T16:40:27.212Z,97992.03
2023-12-20T16:43:31.100Z,97978.59
2023-12-20T16:46:35.147Z,98006.53
2023-12-20T16:49:40.408Z,98004.06
2023-12-20T16:52:44.142Z,98015.09
2023-12-20T16:55:47.711Z,98017.53
2023-12-20T16:58:51.214Z,98020.13
2023-12-20T17:01:55.442Z,98023.59
2023-12-20T17:05:00.708Z,98015.03
2023-12-20T17:08:06.904Z,98019.25
2023-12-20T17:11:26.562Z,98014.06
2023-12-20T17:14:58.003Z,97996.97
2023-12-20T17:18:21.618Z,98001.22
2023-12-20T17:21:47.573Z,97974.09
2023-12-20T17:25:25.563Z,97995.19
2023-12-20T17:28:30.401Z,97977.31
2023-12-20T17:31:34.015Z,97985.75
2023-12-20T17:34:38.672Z,97978.91
2023-12-20T17:37:43.847Z,97975.53
2023-12-20T17:40:47.909Z,97974.69
2023-12-20T17:43:51.540Z,97985.75
2023-12-20T17:46:55.810Z,97985.84
2023-12-20T17:49:59.530Z,97984.19
2023-12-20T17:53:04.512Z,97980.72
2023-12-20T17:56:08.888Z,97979.78
2023-12-20T17:59:12.452Z,97978.66
2023-12-20T18:02:16.096Z,97969.31
2023-12-20T18:05:19.981Z,97971.00
2023-12-20T18:08:25.295Z,97974.44
2023-12-20T18:11:28.834Z,97973.66
2023-12-20T18:14:32.570Z,97981.41
2023-12-20T18:17:36.245Z,97978.00
2023-12-20T18:20:43.346Z,97982.28
2023-12-20T18:27:47.422Z,97972.25
2023-12-20T18:31:32.187Z,97980.31
2023-12-20T18:35:57.729Z,97978.88
2023-12-20T18:44:42.038Z,97993.38
2023-12-20T18:47:46.865Z,97864.19
2023-12-20T18:50:50.716Z,97988.09
2023-12-20T18:53:55.459Z,97991.69
2023-12-20T18:57:00.632Z,97984.00
2023-12-20T19:00:05.370Z,97995.91
2023-12-20T19:03:22.057Z,97982.97
2023-12-20T19:06:39.246Z,97985.63
2023-12-20T19:09:44.198Z,97975.31
2023-12-20T19:12:49.148Z,97971.81
2023-12-20T19:15:53.148Z,97981.47
2023-12-20T19:18:57.255Z,97978.88
2023-12-20T19:22:01.148Z,97978.81
2023-12-20T19:25:09.415Z,97977.19
2023-12-20T19:28:14.698Z,97978.72
2023-12-20T19:31:18.497Z,97979.66
2023-12-20T19:34:22.148Z,97973.72
2023-12-20T19:37:25.709Z,97980.63
2023-12-20T19:40:29.406Z,97976.34
2023-12-20T19:43:34.521Z,97978.16
2023-12-20T19:46:38.615Z,97970.53
2023-12-20T19:49:42.758Z,97971.44
2023-12-20T19:52:47.044Z,97961.06
2023-12-20T19:55:50.727Z,97967.97
2023-12-20T19:58:56.844Z,97965.41
2023-12-20T20:02:01.896Z,97961.16
2023-12-20T20:05:07.947Z,97952.66
2023-12-20T20:08:43.990Z,97962.94
2023-12-20T20:16:39.887Z,97941.56
2023-12-20T20:19:44.008Z,97930.72
2023-12-20T20:22:48.101Z,97941.59
2023-12-20T20:25:52.089Z,97939.88
2023-12-20T20:28:55.820Z,97947.63
2023-12-20T20:32:00.848Z,97926.94
2023-12-20T20:35:04.594Z,97938.91
2023-12-20T20:38:08.237Z,97927.69
2023-12-20T20:41:11.693Z,97936.28
2023-12-20T20:44:17.475Z,97933.72
2023-12-20T20:47:26.335Z,97916.53
2023-12-20T20:50:31.371Z,97904.69
2023-12-20T20:53:35.163Z,97905.38
2023-12-20T20:56:39.658Z,97911.25
2023-12-20T20:59:44.712Z,97905.22
2023-12-20T21:02:50.054Z,97874.13
2023-12-20T21:05:53.847Z,97904.38
2023-12-20T21:08:57.614Z,97907.75
2023-12-20T21:12:01.272Z,97911.16
2023-12-20T21:15:05.713Z,97909.38
2023-12-20T21:18:11.575Z,97915.31
2023-12-20T21:21:15.320Z,97911.06
2023-12-20T21:24:18.945Z,97898.22
2023-12-20T21:27:22.531Z,97886.19
2023-12-20T21:30:26.257Z,97881.03
2023-12-20T21:33:31.627Z,97848.91
2023-12-20T21:36:36.301Z,97869.81
2023-12-20T21:39:39.958Z,97874.91
2023-12-20T21:42:43.550Z,97865.47
2023-12-20T21:45:47.916Z,97843.25
2023-12-20T21:48:52.815Z,97846.50
2023-12-20T21:51:56.705Z,97839.63
2023-12-20T21:55:00.381Z,97841.38
2023-12-20T21:58:04.035Z,97837.84
2023-12-20T22:01:08.651Z,97837.97
2023-12-20T22:04:13.913Z,97840.38
2023-12-20T22:07:17.775Z,97845.41
2023-12-20T22:10:21.337Z,97840.22
2023-12-20T22:13:25.128Z,97833.28
2023-12-20T22:16:28.924Z,97829.06
2023-12-20T22:19:34.119Z,97823.09
2023-12-20T22:22:37.837Z,97806.75
2023-12-20T22:25:41.591Z,97803.31
2023-12-20T22:28:45.198Z,97801.53
2023-12-20T22:34:19.502Z,97814.75
2023-12-20T22:37:23.183Z,97805.16
2023-12-20T22:40:26.838Z,97801.69
2023-12-20T22:43:30.588Z,97793.88
2023-12-20T22:46:34.915Z,97786.91
2023-12-20T22:49:39.888Z,97786.13
2023-12-20T22:52:43.719Z,97779.25
2023-12-20T22:55:49.294Z,97764.56
2023-12-20T22:58:52.894Z,97746.63
2023-12-20T23:01:56.483Z,97749.03
2023-12-20T23:05:01.519Z,97744.84
2023-12-20T23:08:06.077Z,97741.38
2023-12-20T23:11:09.820Z,97742.94
2023-12-20T23:14:16.740Z,97738.59
2023-12-20T23:17:20.844Z,97730.94
2023-12-20T23:20:25.841Z,97727.63
2023-12-20T23:23:29.345Z,97719.94
2023-12-20T23:26:32.958Z,97717.97
2023-12-20T23:29:36.870Z,97704.34
2023-12-20T23:32:40.547Z,97694.06
2023-12-20T23:35:45.735Z,97689.59
2023-12-20T23:38:49.359Z,97693.97
2023-12-20T23:41:52.957Z,97692.28
2023-12-20T23:44:56.521Z,97696.44
2023-12-20T23:48:00.227Z,97688.81
2023-12-20T23:51:05.256Z,97685.22
2023-12-20T23:54:08.830Z,97681.88
2023-12-20T23:57:12.403Z,97675.78
